MKJP/KIN METAR and TAF weather

Enter ICAO airport designator
Station Type Date Time Source
MKJP METAR 2022/01/29 10:00 UTC NOAA

MKJP 291000Z VRB01KT 9999 SCT020 BKN032 25/21 Q1013


Station Type Date Time Source
MKJP Decoded METAR 2022/01/29 10:00 UTC NOAA

Kingston / Norman Manley, Jamaica (MKJP) 17-56N 076-47W 14M
Jan 29, 2022 - 05:00 AM EST / 2022.01.29 1000 UTC
Wind: Variable at 1 MPH (1 KT):0
Visibility: greater than 7 mile(s):0
Sky conditions: mostly cloudy
Temperature: 77 F (25 C)
Dew Point: 69 F (21 C)
Relative Humidity: 78%
Pressure (altimeter): 29.91 in. Hg (1013 hPa)
ob: MKJP 291000Z VRB01KT 9999 SCT020 BKN032 25/21 Q1013
cycle: 10

Station Type Date Time Source
MKJP TAF 2022/01/29 06:21 UTC NOAA

TAF MKJP 290515Z 2906/3006 VRB05KT 9999 SHRA SCT018 BKN032
TEMPO 2908/2914 4000 +SHRA BKN016
BECMG 2915/2917 14010KT FEW022 SCT034

Example: see airport list